sensor_id;sensor_type;location;lat;lon;timestamp;temperature;humidity
9537;DHT22;4807;48.024;11.726;2023-02-01T00:01:39;3.20;99.10
9537;DHT22;4807;48.024;11.726;2023-02-01T00:04:49;3.20;99.10
9537;DHT22;4807;48.024;11.726;2023-02-01T00:07:58;3.20;98.90
9537;DHT22;4807;48.024;11.726;2023-02-01T00:11:08;3.20;99.10
9537;DHT22;4807;48.024;11.726;2023-02-01T00:14:18;3.10;99.10
9537;DHT22;4807;48.024;11.726;2023-02-01T00:17:26;3.10;99.10
9537;DHT22;4807;48.024;11.726;2023-02-01T00:20:36;3.20;98.70
9537;DHT22;4807;48.024;11.726;2023-02-01T00:23:45;3.20;98.50
9537;DHT22;4807;48.024;11.726;2023-02-01T00:26:54;3.20;98.40
9537;DHT22;4807;48.024;11.726;2023-02-01T00:30:02;3.30;98.30
9537;DHT22;4807;48.024;11.726;2023-02-01T00:33:11;3.20;98.40
9537;DHT22;4807;48.024;11.726;2023-02-01T00:36:21;3.20;97.90
9537;DHT22;4807;48.024;11.726;2023-02-01T00:39:29;3.30;97.70
9537;DHT22;4807;48.024;11.726;2023-02-01T00:42:39;3.40;97.20
9537;DHT22;4807;48.024;11.726;2023-02-01T00:45:47;3.40;97.30
9537;DHT22;4807;48.024;11.726;2023-02-01T00:48:56;3.40;97.00
9537;DHT22;4807;48.024;11.726;2023-02-01T00:52:06;3.40;97.10
9537;DHT22;4807;48.024;11.726;2023-02-01T00:55:15;3.40;96.90
9537;DHT22;4807;48.024;11.726;2023-02-01T00:58:24;3.50;97.00
9537;DHT22;4807;48.024;11.726;2023-02-01T01:01:33;3.50;97.40
9537;DHT22;4807;48.024;11.726;2023-02-01T01:04:41;3.50;97.40
9537;DHT22;4807;48.024;11.726;2023-02-01T01:07:51;3.50;97.20
9537;DHT22;4807;48.024;11.726;2023-02-01T01:11:04;3.50;97.30
9537;DHT22;4807;48.024;11.726;2023-02-01T01:14:13;3.50;98.50
9537;DHT22;4807;48.024;11.726;2023-02-01T01:17:22;3.30;99.20
9537;DHT22;4807;48.024;11.726;2023-02-01T01:20:30;3.20;99.90
9537;DHT22;4807;48.024;11.726;2023-02-01T01:23:40;3.10;99.90
9537;DHT22;4807;48.024;11.726;2023-02-01T01:26:49;2.90;99.90
9537;DHT22;4807;48.024;11.726;2023-02-01T01:29:58;2.70;99.90
9537;DHT22;4807;48.024;11.726;2023-02-01T01:33:06;2.60;99.90
9537;DHT22;4807;48.024;11.726;2023-02-01T01:36:15;2.60;99.90
9537;DHT22;4807;48.024;11.726;2023-02-01T01:39:25;2.50;99.90
9537;DHT22;4807;48.024;11.726;2023-02-01T01:42:37;2.50;99.90
9537;DHT22;4807;48.024;11.726;2023-02-01T01:45:46;2.50;99.90
9537;DHT22;4807;48.024;11.726;2023-02-01T01:49:05;2.50;99.90
9537;DHT22;4807;48.024;11.726;2023-02-01T01:52:17;2.40;99.90
9537;DHT22;4807;48.024;11.726;2023-02-01T01:55:30;2.30;99.90
9537;DHT22;4807;48.024;11.726;2023-02-01T01:58:41;2.30;99.90
9537;DHT22;4807;48.024;11.726;2023-02-01T02:01:51;2.30;99.90
9537;DHT22;4807;48.024;11.726;2023-02-01T02:05:00;2.20;99.90
9537;DHT22;4807;48.024;11.726;2023-02-01T02:08:09;2.20;99.90
9537;DHT22;4807;48.024;11.726;2023-02-01T02:11:19;2.20;99.90
9537;DHT22;4807;48.024;11.726;2023-02-01T02:14:28;2.10;99.90
9537;DHT22;4807;48.024;11.726;2023-02-01T02:17:46;2.20;99.90
9537;DHT22;4807;48.024;11.726;2023-02-01T02:21:18;2.10;99.90
9537;DHT22;4807;48.024;11.726;2023-02-01T02:24:59;2.20;99.90
9537;DHT22;4807;48.024;11.726;2023-02-01T02:32:48;2.30;99.90
9537;DHT22;4807;48.024;11.726;2023-02-01T02:36:30;2.30;99.90
9537;DHT22;4807;48.024;11.726;2023-02-01T02:39:50;2.30;99.90
9537;DHT22;4807;48.024;11.726;2023-02-01T02:43:10;2.40;99.90
9537;DHT22;4807;48.024;11.726;2023-02-01T02:46:48;2.40;99.90
9537;DHT22;4807;48.024;11.726;2023-02-01T02:50:20;2.40;99.90
9537;DHT22;4807;48.024;11.726;2023-02-01T02:54:00;2.40;99.90
9537;DHT22;4807;48.024;11.726;2023-02-01T02:57:34;2.40;99.90
9537;DHT22;4807;48.024;11.726;2023-02-01T03:01:05;2.40;99.90
9537;DHT22;4807;48.024;11.726;2023-02-01T03:04:31;2.50;99.90
9537;DHT22;4807;48.024;11.726;2023-02-01T03:08:01;2.50;99.90
9537;DHT22;4807;48.024;11.726;2023-02-01T03:11:14;2.50;99.90
9537;DHT22;4807;48.024;11.726;2023-02-01T03:14:26;2.50;99.90
9537;DHT22;4807;48.024;11.726;2023-02-01T03:17:40;2.50;99.90
9537;DHT22;4807;48.024;11.726;2023-02-01T03:20:52;2.50;99.90
9537;DHT22;4807;48.024;11.726;2023-02-01T03:24:07;2.60;99.90
9537;DHT22;4807;48.024;11.726;2023-02-01T03:27:34;2.60;99.90
9537;DHT22;4807;48.024;11.726;2023-02-01T03:30:50;2.60;99.90
9537;DHT22;4807;48.024;11.726;2023-02-01T03:33:59;2.60;99.90
9537;DHT22;4807;48.024;11.726;2023-02-01T03:37:10;2.60;99.90
9537;DHT22;4807;48.024;11.726;2023-02-01T03:40:25;2.70;99.90
9537;DHT22;4807;48.024;11.726;2023-02-01T03:43:43;2.70;99.90
9537;DHT22;4807;48.024;11.726;2023-02-01T03:47:02;2.70;99.90
9537;DHT22;4807;48.024;11.726;2023-02-01T03:50:15;2.70;99.90
9537;DHT22;4807;48.024;11.726;2023-02-01T03:53:28;2.70;99.90
9537;DHT22;4807;48.024;11.726;2023-02-01T03:56:40;2.80;99.90
9537;DHT22;4807;48.024;11.726;2023-02-01T04:00:04;2.80;99.90
9537;DHT22;4807;48.024;11.726;2023-02-01T04:03:19;2.80;99.90
9537;DHT22;4807;48.024;11.726;2023-02-01T04:06:28;2.80;99.90
9537;DHT22;4807;48.024;11.726;2023-02-01T04:09:41;2.80;99.90
9537;DHT22;4807;48.024;11.726;2023-02-01T04:12:49;2.80;99.90
9537;DHT22;4807;48.024;11.726;2023-02-01T04:15:59;2.80;99.90
9537;DHT22;4807;48.024;11.726;2023-02-01T04:19:07;2.90;99.90
9537;DHT22;4807;48.024;11.726;2023-02-01T04:22:18;2.90;99.90
9537;DHT22;4807;48.024;11.726;2023-02-01T04:25:26;2.80;99.90
9537;DHT22;4807;48.024;11.726;2023-02-01T04:28:35;2.90;99.90
9537;DHT22;4807;48.024;11.726;2023-02-01T04:31:44;2.90;99.90
9537;DHT22;4807;48.024;11.726;2023-02-01T04:34:53;3.00;99.90
9537;DHT22;4807;48.024;11.726;2023-02-01T04:38:01;2.90;99.90
9537;DHT22;4807;48.024;11.726;2023-02-01T04:41:09;2.90;99.90
9537;DHT22;4807;48.024;11.726;2023-02-01T04:44:19;2.90;99.90
9537;DHT22;4807;48.024;11.726;2023-02-01T04:47:28;2.90;99.90
9537;DHT22;4807;48.024;11.726;2023-02-01T04:50:37;2.90;99.90
9537;DHT22;4807;48.024;11.726;2023-02-01T04:53:45;3.00;99.90
9537;DHT22;4807;48.024;11.726;2023-02-01T04:56:53;2.90;99.90
9537;DHT22;4807;48.024;11.726;2023-02-01T05:00:03;2.90;99.90
9537;DHT22;4807;48.024;11.726;2023-02-01T05:03:13;2.90;99.90
9537;DHT22;4807;48.024;11.726;2023-02-01T05:06:22;2.90;99.90
9537;DHT22;4807;48.024;11.726;2023-02-01T05:09:31;2.90;99.90
9537;DHT22;4807;48.024;11.726;2023-02-01T05:12:39;2.90;99.90
9537;DHT22;4807;48.024;11.726;2023-02-01T05:16:06;2.90;99.90
9537;DHT22;4807;48.024;11.726;2023-02-01T05:19:16;3.00;99.90
9537;DHT22;4807;48.024;11.726;2023-02-01T05:22:24;2.90;99.90
9537;DHT22;4807;48.024;11.726;2023-02-01T05:25:32;3.00;99.90
9537;DHT22;4807;48.024;11.726;2023-02-01T05:28:40;3.00;99.90
9537;DHT22;4807;48.024;11.726;2023-02-01T05:31:49;3.00;99.90
9537;DHT22;4807;48.024;11.726;2023-02-01T05:34:59;2.90;99.90
9537;DHT22;4807;48.024;11.726;2023-02-01T05:38:07;2.90;99.90
9537;DHT22;4807;48.024;11.726;2023-02-01T05:41:15;2.90;99.90
9537;DHT22;4807;48.024;11.726;2023-02-01T05:44:24;2.90;99.90
9537;DHT22;4807;48.024;11.726;2023-02-01T05:47:32;2.90;99.90
9537;DHT22;4807;48.024;11.726;2023-02-01T05:50:43;2.90;99.90
9537;DHT22;4807;48.024;11.726;2023-02-01T05:53:52;2.90;99.90
9537;DHT22;4807;48.024;11.726;2023-02-01T05:57:00;2.90;99.90
9537;DHT22;4807;48.024;11.726;2023-02-01T06:00:11;2.90;99.90
9537;DHT22;4807;48.024;11.726;2023-02-01T06:03:20;2.90;99.90
9537;DHT22;4807;48.024;11.726;2023-02-01T06:06:31;2.90;99.90
9537;DHT22;4807;48.024;11.726;2023-02-01T06:09:40;2.90;99.90
9537;DHT22;4807;48.024;11.726;2023-02-01T06:12:48;2.90;99.90
9537;DHT22;4807;48.024;11.726;2023-02-01T06:15:57;2.90;99.90
9537;DHT22;4807;48.024;11.726;2023-02-01T06:19:05;2.90;99.90
9537;DHT22;4807;48.024;11.726;2023-02-01T06:22:16;2.90;99.90
9537;DHT22;4807;48.024;11.726;2023-02-01T06:25:25;2.90;99.90
9537;DHT22;4807;48.024;11.726;2023-02-01T06:28:34;2.90;99.90
9537;DHT22;4807;48.024;11.726;2023-02-01T06:31:42;3.00;99.90
9537;DHT22;4807;48.024;11.726;2023-02-01T06:34:51;2.90;99.90
9537;DHT22;4807;48.024;11.726;2023-02-01T06:38:01;2.90;99.90
9537;DHT22;4807;48.024;11.726;2023-02-01T06:41:10;3.00;99.90
9537;DHT22;4807;48.024;11.726;2023-02-01T06:44:18;3.00;99.90
9537;DHT22;4807;48.024;11.726;2023-02-01T06:47:27;2.90;99.90
9537;DHT22;4807;48.024;11.726;2023-02-01T06:50:35;3.00;99.90
9537;DHT22;4807;48.024;11.726;2023-02-01T06:53:45;2.90;99.90
9537;DHT22;4807;48.024;11.726;2023-02-01T06:56:53;2.90;99.90
9537;DHT22;4807;48.024;11.726;2023-02-01T07:00:03;3.00;99.90
9537;DHT22;4807;48.024;11.726;2023-02-01T07:03:12;3.00;99.90
9537;DHT22;4807;48.024;11.726;2023-02-01T07:06:21;3.00;99.90
9537;DHT22;4807;48.024;11.726;2023-02-01T07:09:31;3.00;99.90
9537;DHT22;4807;48.024;11.726;2023-02-01T07:12:39;3.00;99.90
9537;DHT22;4807;48.024;11.726;2023-02-01T07:15:48;4.20;99.90
9537;DHT22;4807;48.024;11.726;2023-02-01T07:18:56;3.00;99.90
9537;DHT22;4807;48.024;11.726;2023-02-01T07:22:06;3.00;99.90
9537;DHT22;4807;48.024;11.726;2023-02-01T07:25:16;3.00;99.90
9537;DHT22;4807;48.024;11.726;2023-02-01T07:28:25;3.00;99.90
9537;DHT22;4807;48.024;11.726;2023-02-01T07:31:34;3.00;99.90
9537;DHT22;4807;48.024;11.726;2023-02-01T07:34:43;3.00;99.90
9537;DHT22;4807;48.024;11.726;2023-02-01T07:37:51;3.00;99.90
9537;DHT22;4807;48.024;11.726;2023-02-01T07:41:02;3.00;99.90
9537;DHT22;4807;48.024;11.726;2023-02-01T07:44:12;3.00;99.90
9537;DHT22;4807;48.024;11.726;2023-02-01T07:47:20;3.00;99.90
9537;DHT22;4807;48.024;11.726;2023-02-01T07:50:29;3.00;99.90
9537;DHT22;4807;48.024;11.726;2023-02-01T07:53:38;3.10;99.90
9537;DHT22;4807;48.024;11.726;2023-02-01T07:56:48;3.10;99.90
9537;DHT22;4807;48.024;11.726;2023-02-01T07:59:57;3.10;99.90
9537;DHT22;4807;48.024;11.726;2023-02-01T08:03:23;3.10;99.90
9537;DHT22;4807;48.024;11.726;2023-02-01T08:06:32;3.10;99.90
9537;DHT22;4807;48.024;11.726;2023-02-01T08:09:41;3.10;99.90
9537;DHT22;4807;48.024;11.726;2023-02-01T08:12:51;3.10;99.90
9537;DHT22;4807;48.024;11.726;2023-02-01T08:16:08;3.20;99.90
9537;DHT22;4807;48.024;11.726;2023-02-01T08:19:17;3.20;99.90
9537;DHT22;4807;48.024;11.726;2023-02-01T08:22:26;3.30;99.90
9537;DHT22;4807;48.024;11.726;2023-02-01T08:25:39;3.20;99.90
9537;DHT22;4807;48.024;11.726;2023-02-01T08:28:50;3.30;99.90
9537;DHT22;4807;48.024;11.726;2023-02-01T08:32:00;3.30;99.90
9537;DHT22;4807;48.024;11.726;2023-02-01T08:35:09;3.30;99.90
9537;DHT22;4807;48.024;11.726;2023-02-01T08:38:17;3.30;99.90
9537;DHT22;4807;48.024;11.726;2023-02-01T08:41:28;3.40;99.90
9537;DHT22;4807;48.024;11.726;2023-02-01T08:44:39;3.40;99.90
9537;DHT22;4807;48.024;11.726;2023-02-01T08:47:47;3.40;99.90
9537;DHT22;4807;48.024;11.726;2023-02-01T08:50:56;3.40;99.90
9537;DHT22;4807;48.024;11.726;2023-02-01T08:54:05;3.50;99.90
9537;DHT22;4807;48.024;11.726;2023-02-01T08:57:13;3.60;99.90
9537;DHT22;4807;48.024;11.726;2023-02-01T09:00:23;3.60;99.90
9537;DHT22;4807;48.024;11.726;2023-02-01T09:03:33;3.60;99.90
9537;DHT22;4807;48.024;11.726;2023-02-01T09:06:42;3.70;99.90
9537;DHT22;4807;48.024;11.726;2023-02-01T09:09:51;3.80;99.90
9537;DHT22;4807;48.024;11.726;2023-02-01T09:13:01;3.90;99.90
9537;DHT22;4807;48.024;11.726;2023-02-01T09:16:11;4.10;99.90
9537;DHT22;4807;48.024;11.726;2023-02-01T09:19:20;4.10;99.90
9537;DHT22;4807;48.024;11.726;2023-02-01T09:22:32;4.20;99.90
9537;DHT22;4807;48.024;11.726;2023-02-01T09:25:41;4.20;99.90
9537;DHT22;4807;48.024;11.726;2023-02-01T09:28:49;4.20;99.90
9537;DHT22;4807;48.024;11.726;2023-02-01T09:31:59;4.20;99.90
9537;DHT22;4807;48.024;11.726;2023-02-01T09:35:10;4.30;99.90
9537;DHT22;4807;48.024;11.726;2023-02-01T09:38:18;4.50;99.90
9537;DHT22;4807;48.024;11.726;2023-02-01T09:41:35;4.60;99.60
9537;DHT22;4807;48.024;11.726;2023-02-01T09:45:10;4.70;99.60
9537;DHT22;4807;48.024;11.726;2023-02-01T09:48:30;4.80;98.90
9537;DHT22;4807;48.024;11.726;2023-02-01T09:51:45;4.90;99.20
9537;DHT22;4807;48.024;11.726;2023-02-01T09:54:59;4.90;99.30
9537;DHT22;4807;48.024;11.726;2023-02-01T09:58:15;4.90;98.90
9537;DHT22;4807;48.024;11.726;2023-02-01T10:01:27;4.90;99.10
9537;DHT22;4807;48.024;11.726;2023-02-01T10:04:38;4.90;99.00
9537;DHT22;4807;48.024;11.726;2023-02-01T10:07:51;4.90;98.90
9537;DHT22;4807;48.024;11.726;2023-02-01T10:11:18;5.10;98.80
9537;DHT22;4807;48.024;11.726;2023-02-01T10:14:50;5.00;98.70
9537;DHT22;4807;48.024;11.726;2023-02-01T10:18:20;5.00;98.60
9537;DHT22;4807;48.024;11.726;2023-02-01T10:21:51;5.00;98.50
9537;DHT22;4807;48.024;11.726;2023-02-01T10:25:10;5.00;98.60
9537;DHT22;4807;48.024;11.726;2023-02-01T10:28:26;5.20;97.90
9537;DHT22;4807;48.024;11.726;2023-02-01T10:31:36;5.20;98.20
9537;DHT22;4807;48.024;11.726;2023-02-01T10:34:50;5.20;98.50
9537;DHT22;4807;48.024;11.726;2023-02-01T10:38:25;5.10;98.20
9537;DHT22;4807;48.024;11.726;2023-02-01T10:41:36;5.20;98.30
9537;DHT22;4807;48.024;11.726;2023-02-01T10:44:48;5.20;98.50
9537;DHT22;4807;48.024;11.726;2023-02-01T10:47:58;5.30;98.30
9537;DHT22;4807;48.024;11.726;2023-02-01T10:51:13;5.20;98.40
9537;DHT22;4807;48.024;11.726;2023-02-01T10:54:34;5.10;98.40
9537;DHT22;4807;48.024;11.726;2023-02-01T10:57:56;5.00;98.70
9537;DHT22;4807;48.024;11.726;2023-02-01T11:01:06;4.90;99.20
9537;DHT22;4807;48.024;11.726;2023-02-01T11:04:18;4.90;99.40
9537;DHT22;4807;48.024;11.726;2023-02-01T11:07:29;4.90;99.10
9537;DHT22;4807;48.024;11.726;2023-02-01T11:10:41;4.80;99.20
9537;DHT22;4807;48.024;11.726;2023-02-01T11:13:56;5.00;98.90
9537;DHT22;4807;48.024;11.726;2023-02-01T11:17:26;4.90;99.20
9537;DHT22;4807;48.024;11.726;2023-02-01T11:20:39;4.90;99.00
9537;DHT22;4807;48.024;11.726;2023-02-01T11:23:48;4.80;99.10
9537;DHT22;4807;48.024;11.726;2023-02-01T11:27:00;4.60;99.20
9537;DHT22;4807;48.024;11.726;2023-02-01T11:30:17;4.50;99.50
9537;DHT22;4807;48.024;11.726;2023-02-01T11:33:34;4.60;99.30
9537;DHT22;4807;48.024;11.726;2023-02-01T11:36:47;4.50;99.20
9537;DHT22;4807;48.024;11.726;2023-02-01T11:39:59;4.60;99.20
9537;DHT22;4807;48.024;11.726;2023-02-01T11:43:14;4.50;99.20
9537;DHT22;4807;48.024;11.726;2023-02-01T11:46:31;4.50;99.20
9537;DHT22;4807;48.024;11.726;2023-02-01T11:49:41;4.50;99.10
9537;DHT22;4807;48.024;11.726;2023-02-01T11:53:03;4.40;99.20
9537;DHT22;4807;48.024;11.726;2023-02-01T11:56:26;4.50;99.40
9537;DHT22;4807;48.024;11.726;2023-02-01T11:59:56;4.50;99.50
9537;DHT22;4807;48.024;11.726;2023-02-01T12:03:39;4.50;99.50
9537;DHT22;4807;48.024;11.726;2023-02-01T12:07:04;4.50;99.30
9537;DHT22;4807;48.024;11.726;2023-02-01T12:10:28;4.40;99.20
9537;DHT22;4807;48.024;11.726;2023-02-01T12:13:52;4.30;99.40
9537;DHT22;4807;48.024;11.726;2023-02-01T12:17:31;4.30;99.60
9537;DHT22;4807;48.024;11.726;2023-02-01T12:21:09;4.30;99.60
9537;DHT22;4807;48.024;11.726;2023-02-01T12:24:51;4.40;99.30
9537;DHT22;4807;48.024;11.726;2023-02-01T12:28:41;4.30;99.60
9537;DHT22;4807;48.024;11.726;2023-02-01T12:32:16;4.30;99.50
9537;DHT22;4807;48.024;11.726;2023-02-01T12:35:46;4.30;99.40
9537;DHT22;4807;48.024;11.726;2023-02-01T12:39:06;4.20;99.40
9537;DHT22;4807;48.024;11.726;2023-02-01T12:42:27;4.30;99.30
9537;DHT22;4807;48.024;11.726;2023-02-01T12:45:41;4.30;99.00
9537;DHT22;4807;48.024;11.726;2023-02-01T12:48:59;4.30;98.90
9537;DHT22;4807;48.024;11.726;2023-02-01T12:52:14;4.20;98.80
9537;DHT22;4807;48.024;11.726;2023-02-01T12:55:35;4.40;99.10
9537;DHT22;4807;48.024;11.726;2023-02-01T12:58:49;4.20;99.00
9537;DHT22;4807;48.024;11.726;2023-02-01T13:02:06;4.20;98.70
9537;DHT22;4807;48.024;11.726;2023-02-01T13:05:29;4.20;98.70
9537;DHT22;4807;48.024;11.726;2023-02-01T13:08:47;4.20;98.10
9537;DHT22;4807;48.024;11.726;2023-02-01T13:12:06;4.20;98.40
9537;DHT22;4807;48.024;11.726;2023-02-01T13:15:24;4.20;98.70
9537;DHT22;4807;48.024;11.726;2023-02-01T13:18:38;4.20;98.20
9537;DHT22;4807;48.024;11.726;2023-02-01T13:21:56;4.20;98.40
9537;DHT22;4807;48.024;11.726;2023-02-01T13:25:13;4.30;98.60
9537;DHT22;4807;48.024;11.726;2023-02-01T13:28:41;4.30;98.40
9537;DHT22;4807;48.024;11.726;2023-02-01T13:32:12;4.30;98.60
9537;DHT22;4807;48.024;11.726;2023-02-01T13:36:06;4.40;98.90
9537;DHT22;4807;48.024;11.726;2023-02-01T13:39:50;4.50;98.70
9537;DHT22;4807;48.024;11.726;2023-02-01T13:43:19;4.50;99.10
9537;DHT22;4807;48.024;11.726;2023-02-01T13:46:39;4.40;99.20
9537;DHT22;4807;48.024;11.726;2023-02-01T13:49:51;4.50;99.30
9537;DHT22;4807;48.024;11.726;2023-02-01T13:53:11;4.50;99.30
9537;DHT22;4807;48.024;11.726;2023-02-01T13:56:40;4.60;99.30
9537;DHT22;4807;48.024;11.726;2023-02-01T13:59:51;4.60;99.20
9537;DHT22;4807;48.024;11.726;2023-02-01T14:03:08;4.60;99.00
9537;DHT22;4807;48.024;11.726;2023-02-01T14:06:44;4.70;99.10
9537;DHT22;4807;48.024;11.726;2023-02-01T14:09:53;4.70;99.00
9537;DHT22;4807;48.024;11.726;2023-02-01T14:13:13;4.60;99.10
9537;DHT22;4807;48.024;11.726;2023-02-01T14:16:29;4.50;99.20
9537;DHT22;4807;48.024;11.726;2023-02-01T14:19:38;4.40;99.60
9537;DHT22;4807;48.024;11.726;2023-02-01T14:22:47;4.40;99.40
9537;DHT22;4807;48.024;11.726;2023-02-01T14:29:32;4.30;99.60
9537;DHT22;4807;48.024;11.726;2023-02-01T14:32:42;4.30;99.30
9537;DHT22;4807;48.024;11.726;2023-02-01T14:36:05;4.30;99.40
9537;DHT22;4807;48.024;11.726;2023-02-01T14:39:29;4.20;99.50
9537;DHT22;4807;48.024;11.726;2023-02-01T14:42:44;4.20;99.60
9537;DHT22;4807;48.024;11.726;2023-02-01T14:45:56;4.20;99.20
9537;DHT22;4807;48.024;11.726;2023-02-01T14:49:06;4.20;99.00
9537;DHT22;4807;48.024;11.726;2023-02-01T14:52:17;4.20;98.90
9537;DHT22;4807;48.024;11.726;2023-02-01T14:55:34;4.10;99.10
9537;DHT22;4807;48.024;11.726;2023-02-01T14:58:51;4.10;99.50
9537;DHT22;4807;48.024;11.726;2023-02-01T15:02:20;4.00;99.30
9537;DHT22;4807;48.024;11.726;2023-02-01T15:05:32;4.00;99.50
9537;DHT22;4807;48.024;11.726;2023-02-01T15:08:41;1.30;97.90
9537;DHT22;4807;48.024;11.726;2023-02-01T15:11:55;4.00;99.50
9537;DHT22;4807;48.024;11.726;2023-02-01T15:15:13;4.00;99.80
9537;DHT22;4807;48.024;11.726;2023-02-01T15:18:25;3.90;99.40
9537;DHT22;4807;48.024;11.726;2023-02-01T15:21:42;3.80;99.80
9537;DHT22;4807;48.024;11.726;2023-02-01T15:24:56;3.80;99.70
9537;DHT22;4807;48.024;11.726;2023-02-01T15:28:13;3.70;99.90
9537;DHT22;4807;48.024;11.726;2023-02-01T15:31:33;3.60;99.90
9537;DHT22;4807;48.024;11.726;2023-02-01T15:34:46;3.50;99.90
9537;DHT22;4807;48.024;11.726;2023-02-01T15:41:48;3.40;99.90
9537;DHT22;4807;48.024;11.726;2023-02-01T15:44:59;3.40;99.90
9537;DHT22;4807;48.024;11.726;2023-02-01T15:48:16;3.30;99.90
9537;DHT22;4807;48.024;11.726;2023-02-01T15:51:32;3.40;99.90
9537;DHT22;4807;48.024;11.726;2023-02-01T15:54:46;3.30;99.90
9537;DHT22;4807;48.024;11.726;2023-02-01T15:57:57;3.30;99.90
9537;DHT22;4807;48.024;11.726;2023-02-01T16:01:06;3.20;99.90
9537;DHT22;4807;48.024;11.726;2023-02-01T16:04:22;3.20;99.90
9537;DHT22;4807;48.024;11.726;2023-02-01T16:07:33;3.10;99.90
9537;DHT22;4807;48.024;11.726;2023-02-01T16:10:44;3.00;99.90
9537;DHT22;4807;48.024;11.726;2023-02-01T16:13:54;2.90;99.90
9537;DHT22;4807;48.024;11.726;2023-02-01T16:17:02;3.00;99.90
9537;DHT22;4807;48.024;11.726;2023-02-01T16:20:12;3.00;99.90
9537;DHT22;4807;48.024;11.726;2023-02-01T16:23:22;3.00;99.90
9537;DHT22;4807;48.024;11.726;2023-02-01T16:26:30;3.00;99.90
9537;DHT22;4807;48.024;11.726;2023-02-01T16:29:40;3.10;99.90
9537;DHT22;4807;48.024;11.726;2023-02-01T16:32:49;3.10;99.90
9537;DHT22;4807;48.024;11.726;2023-02-01T16:36:01;3.10;99.90
9537;DHT22;4807;48.024;11.726;2023-02-01T16:39:13;3.10;99.90
9537;DHT22;4807;48.024;11.726;2023-02-01T16:42:22;3.20;99.90
9537;DHT22;4807;48.024;11.726;2023-02-01T16:45:31;3.20;99.90
9537;DHT22;4807;48.024;11.726;2023-02-01T16:48:41;3.30;99.90
9537;DHT22;4807;48.024;11.726;2023-02-01T16:51:58;3.30;99.90
9537;DHT22;4807;48.024;11.726;2023-02-01T16:55:12;3.30;99.90
9537;DHT22;4807;48.024;11.726;2023-02-01T16:58:21;3.40;99.90
9537;DHT22;4807;48.024;11.726;2023-02-01T17:01:30;3.40;99.90
9537;DHT22;4807;48.024;11.726;2023-02-01T17:04:38;3.40;99.90
9537;DHT22;4807;48.024;11.726;2023-02-01T17:07:47;3.30;99.90
9537;DHT22;4807;48.024;11.726;2023-02-01T17:10:57;3.40;99.90
9537;DHT22;4807;48.024;11.726;2023-02-01T17:14:15;3.50;99.90
9537;DHT22;4807;48.024;11.726;2023-02-01T17:17:30;3.50;99.90
9537;DHT22;4807;48.024;11.726;2023-02-01T17:20:45;3.50;99.30
9537;DHT22;4807;48.024;11.726;2023-02-01T17:23:54;3.50;99.30
9537;DHT22;4807;48.024;11.726;2023-02-01T17:27:06;3.60;99.20
9537;DHT22;4807;48.024;11.726;2023-02-01T17:30:15;3.50;99.30
9537;DHT22;4807;48.024;11.726;2023-02-01T17:33:28;3.60;99.10
9537;DHT22;4807;48.024;11.726;2023-02-01T17:36:42;3.60;99.10
9537;DHT22;4807;48.024;11.726;2023-02-01T17:39:51;3.60;99.00
9537;DHT22;4807;48.024;11.726;2023-02-01T17:43:03;3.60;98.90
9537;DHT22;4807;48.024;11.726;2023-02-01T17:46:13;3.60;98.70
9537;DHT22;4807;48.024;11.726;2023-02-01T17:49:24;3.70;98.60
9537;DHT22;4807;48.024;11.726;2023-02-01T17:52:34;3.60;98.20
9537;DHT22;4807;48.024;11.726;2023-02-01T17:55:44;3.70;98.10
9537;DHT22;4807;48.024;11.726;2023-02-01T17:58:54;3.70;97.80
9537;DHT22;4807;48.024;11.726;2023-02-01T18:02:13;3.70;98.20
9537;DHT22;4807;48.024;11.726;2023-02-01T18:05:28;3.70;97.90
9537;DHT22;4807;48.024;11.726;2023-02-01T18:08:45;3.70;97.50
9537;DHT22;4807;48.024;11.726;2023-02-01T18:11:54;3.70;97.20
9537;DHT22;4807;48.024;11.726;2023-02-01T18:15:14;3.80;97.40
9537;DHT22;4807;48.024;11.726;2023-02-01T18:21:36;3.70;96.80
9537;DHT22;4807;48.024;11.726;2023-02-01T18:24:50;3.80;96.90
9537;DHT22;4807;48.024;11.726;2023-02-01T18:27:58;3.80;96.80
9537;DHT22;4807;48.024;11.726;2023-02-01T18:31:17;3.80;96.70
9537;DHT22;4807;48.024;11.726;2023-02-01T18:34:29;3.90;96.30
9537;DHT22;4807;48.024;11.726;2023-02-01T18:37:37;4.40;96.40
9537;DHT22;4807;48.024;11.726;2023-02-01T18:40:49;4.00;96.10
9537;DHT22;4807;48.024;11.726;2023-02-01T18:43:59;4.00;95.80
9537;DHT22;4807;48.024;11.726;2023-02-01T18:47:09;3.90;95.80
9537;DHT22;4807;48.024;11.726;2023-02-01T18:50:17;4.00;96.10
9537;DHT22;4807;48.024;11.726;2023-02-01T18:53:26;4.00;96.30
9537;DHT22;4807;48.024;11.726;2023-02-01T18:56:35;4.00;96.10
9537;DHT22;4807;48.024;11.726;2023-02-01T18:59:44;3.90;95.90
9537;DHT22;4807;48.024;11.726;2023-02-01T19:02:54;3.90;95.90
9537;DHT22;4807;48.024;11.726;2023-02-01T19:06:03;3.90;96.10
9537;DHT22;4807;48.024;11.726;2023-02-01T19:09:11;3.90;96.20
9537;DHT22;4807;48.024;11.726;2023-02-01T19:12:20;3.90;96.20
9537;DHT22;4807;48.024;11.726;2023-02-01T19:15:28;4.00;95.90
9537;DHT22;4807;48.024;11.726;2023-02-01T19:18:41;3.90;95.90
9537;DHT22;4807;48.024;11.726;2023-02-01T19:21:49;3.90;96.30
9537;DHT22;4807;48.024;11.726;2023-02-01T19:25:01;3.90;96.10
9537;DHT22;4807;48.024;11.726;2023-02-01T19:28:09;3.90;96.20
9537;DHT22;4807;48.024;11.726;2023-02-01T19:31:17;3.90;96.50
9537;DHT22;4807;48.024;11.726;2023-02-01T19:34:27;3.80;96.40
9537;DHT22;4807;48.024;11.726;2023-02-01T19:37:36;3.80;96.50
9537;DHT22;4807;48.024;11.726;2023-02-01T19:40:47;3.90;96.30
9537;DHT22;4807;48.024;11.726;2023-02-01T19:43:56;3.90;96.30
9537;DHT22;4807;48.024;11.726;2023-02-01T19:47:04;3.90;96.20
9537;DHT22;4807;48.024;11.726;2023-02-01T19:50:18;3.90;96.30
9537;DHT22;4807;48.024;11.726;2023-02-01T19:53:28;3.80;96.50
9537;DHT22;4807;48.024;11.726;2023-02-01T19:56:37;3.90;96.20
9537;DHT22;4807;48.024;11.726;2023-02-01T19:59:46;3.90;96.50
9537;DHT22;4807;48.024;11.726;2023-02-01T20:02:54;3.90;96.50
9537;DHT22;4807;48.024;11.726;2023-02-01T20:06:05;3.90;96.50
9537;DHT22;4807;48.024;11.726;2023-02-01T20:09:15;3.90;96.30
9537;DHT22;4807;48.024;11.726;2023-02-01T20:12:24;3.90;96.30
9537;DHT22;4807;48.024;11.726;2023-02-01T20:15:33;3.90;96.40
9537;DHT22;4807;48.024;11.726;2023-02-01T20:18:41;3.90;96.10
9537;DHT22;4807;48.024;11.726;2023-02-01T20:21:51;3.80;96.40
9537;DHT22;4807;48.024;11.726;2023-02-01T20:25:00;3.90;96.10
9537;DHT22;4807;48.024;11.726;2023-02-01T20:28:10;3.90;96.20
9537;DHT22;4807;48.024;11.726;2023-02-01T20:31:18;3.90;96.20
9537;DHT22;4807;48.024;11.726;2023-02-01T20:34:26;3.90;96.10
9537;DHT22;4807;48.024;11.726;2023-02-01T20:37:36;3.90;96.30
9537;DHT22;4807;48.024;11.726;2023-02-01T20:40:45;3.90;96.20
9537;DHT22;4807;48.024;11.726;2023-02-01T20:43:53;3.90;95.80
9537;DHT22;4807;48.024;11.726;2023-02-01T20:47:02;3.90;96.10
9537;DHT22;4807;48.024;11.726;2023-02-01T20:50:11;4.00;96.20
9537;DHT22;4807;48.024;11.726;2023-02-01T20:53:21;4.00;96.00
9537;DHT22;4807;48.024;11.726;2023-02-01T20:56:32;3.90;96.30
9537;DHT22;4807;48.024;11.726;2023-02-01T20:59:41;4.10;96.10
9537;DHT22;4807;48.024;11.726;2023-02-01T21:02:49;4.00;96.30
9537;DHT22;4807;48.024;11.726;2023-02-01T21:05:58;4.00;96.10
9537;DHT22;4807;48.024;11.726;2023-02-01T21:09:09;3.90;96.70
9537;DHT22;4807;48.024;11.726;2023-02-01T21:12:18;3.90;96.90
9537;DHT22;4807;48.024;11.726;2023-02-01T21:15:26;3.90;97.20
9537;DHT22;4807;48.024;11.726;2023-02-01T21:18:36;3.80;97.30